createdAt,value
2016-10-19T00:00:08.003Z,959.13
2016-10-19T00:01:07.738Z,959.08
2016-10-19T00:02:08.377Z,959.08
2016-10-19T00:03:07.989Z,959.08
2016-10-19T00:04:08.400Z,959.09
2016-10-19T00:05:08.643Z,959.03
2016-10-19T00:06:13.840Z,959.06
2016-10-19T00:07:07.660Z,959.04
2016-10-19T00:08:08.316Z,959.03
2016-10-19T00:09:08.302Z,959.09
2016-10-19T00:10:07.742Z,959.04
2016-10-19T00:11:08.713Z,959.06
2016-10-19T00:12:08.073Z,959.09
2016-10-19T00:13:07.736Z,959.04
2016-10-19T00:14:07.751Z,959.02
2016-10-19T00:15:08.104Z,959.01
2016-10-19T00:16:08.780Z,958.98
2016-10-19T00:17:07.671Z,959.02
2016-10-19T00:18:08.493Z,959.00
2016-10-19T00:19:08.191Z,958.98
2016-10-19T00:20:08.154Z,958.98
2016-10-19T00:21:07.770Z,958.96
2016-10-19T00:22:08.405Z,958.95
2016-10-19T00:23:08.125Z,959.03
2016-10-19T00:24:07.566Z,958.96
2016-10-19T00:25:08.188Z,958.96
2016-10-19T00:26:08.095Z,958.95
2016-10-19T00:27:07.490Z,958.95
2016-10-19T00:28:08.089Z,958.92
2016-10-19T00:29:08.016Z,958.87
2016-10-19T00:30:07.545Z,958.89
2016-10-19T00:31:08.865Z,958.89
2016-10-19T00:32:07.824Z,958.83
2016-10-19T00:33:07.719Z,958.85
2016-10-19T00:34:08.440Z,958.83
2016-10-19T00:35:08.541Z,958.80
2016-10-19T00:36:14.631Z,958.78
2016-10-19T00:37:08.649Z,958.79
2016-10-19T00:38:08.032Z,958.80
2016-10-19T00:39:08.199Z,958.81
2016-10-19T00:40:08.833Z,958.80
2016-10-19T00:41:08.120Z,958.81
2016-10-19T00:42:08.148Z,958.83
2016-10-19T00:43:08.357Z,958.77
2016-10-19T00:44:14.873Z,958.75
2016-10-19T00:45:08.021Z,958.77
2016-10-19T00:46:07.843Z,958.72
2016-10-19T00:47:08.485Z,958.74
2016-10-19T00:48:08.067Z,958.73
2016-10-19T00:49:08.484Z,958.72
2016-10-19T00:50:08.610Z,958.67
2016-10-19T00:51:08.019Z,958.70
2016-10-19T00:52:07.887Z,958.63
2016-10-19T00:53:08.432Z,958.63
2016-10-19T00:54:08.155Z,958.67
2016-10-19T00:55:08.198Z,958.61
2016-10-19T00:56:08.827Z,958.61
2016-10-19T00:57:08.113Z,958.61
2016-10-19T00:58:07.827Z,958.61
2016-10-19T00:59:08.491Z,958.54
2016-10-19T01:00:08.366Z,958.54
2016-10-19T01:01:08.163Z,958.52
2016-10-19T01:02:07.580Z,958.53
2016-10-19T01:03:08.452Z,958.51
2016-10-19T01:04:07.819Z,958.56
2016-10-19T01:05:08.383Z,958.51
2016-10-19T01:06:08.108Z,958.46
2016-10-19T01:07:07.829Z,958.53
2016-10-19T01:08:13.402Z,958.53
2016-10-19T01:09:08.356Z,958.49
2016-10-19T01:10:07.897Z,958.49
2016-10-19T01:11:07.782Z,958.42
2016-10-19T01:12:08.155Z,958.39
2016-10-19T01:13:09.106Z,958.41
2016-10-19T01:14:07.855Z,958.37
2016-10-19T01:15:08.694Z,958.40
2016-10-19T01:16:08.945Z,958.41
2016-10-19T01:17:07.760Z,958.43
2016-10-19T01:18:07.823Z,958.37
2016-10-19T01:19:08.449Z,958.41
2016-10-19T01:20:15.433Z,958.36
2016-10-19T01:21:07.828Z,958.37
2016-10-19T01:22:08.558Z,958.34
2016-10-19T01:23:08.172Z,958.35
2016-10-19T01:24:07.547Z,958.33
2016-10-19T01:25:08.491Z,958.33
2016-10-19T01:26:07.821Z,958.32
2016-10-19T01:27:07.832Z,958.36
2016-10-19T01:28:08.125Z,958.34
2016-10-19T01:29:08.098Z,958.37
2016-10-19T01:30:07.852Z,958.33
2016-10-19T01:31:08.671Z,958.37
2016-10-19T01:32:07.915Z,958.35
2016-10-19T01:33:07.600Z,958.27
2016-10-19T01:34:08.501Z,958.32
2016-10-19T01:35:08.752Z,958.31
2016-10-19T01:36:08.289Z,958.25
2016-10-19T01:37:08.476Z,958.28
2016-10-19T01:38:08.577Z,958.25
2016-10-19T01:39:07.876Z,958.21
2016-10-19T01:40:08.231Z,958.20
2016-10-19T01:41:08.121Z,958.18
2016-10-19T01:42:08.320Z,958.19
2016-10-19T01:43:07.956Z,958.18
2016-10-19T01:44:14.711Z,958.22
2016-10-19T01:45:08.522Z,958.20
2016-10-19T01:46:07.526Z,958.20
2016-10-19T01:47:08.636Z,958.22
2016-10-19T01:48:08.237Z,958.18
2016-10-19T01:49:08.249Z,958.18
2016-10-19T01:50:08.328Z,958.14
2016-10-19T01:51:13.729Z,958.12
2016-10-19T01:52:08.221Z,958.11
2016-10-19T01:53:08.228Z,958.15
2016-10-19T01:54:08.571Z,958.11
2016-10-19T01:55:08.458Z,958.13
2016-10-19T01:56:08.576Z,958.07
2016-10-19T01:57:08.536Z,958.09
2016-10-19T01:58:08.208Z,958.04
2016-10-19T01:59:08.178Z,958.09
2016-10-19T02:00:07.917Z,958.07
2016-10-19T02:01:10.444Z,958.03
2016-10-19T02:02:08.387Z,958.06
2016-10-19T02:03:08.552Z,958.03
2016-10-19T02:04:07.610Z,958.02
2016-10-19T02:05:14.048Z,958.06
2016-10-19T02:06:07.875Z,958.02
2016-10-19T02:07:08.226Z,958.02
2016-10-19T02:08:08.645Z,958.00
2016-10-19T02:09:08.562Z,957.98
2016-10-19T02:10:07.535Z,957.98
2016-10-19T02:11:08.773Z,958.03
2016-10-19T02:12:08.385Z,957.99
2016-10-19T02:13:07.525Z,957.96
2016-10-19T02:14:08.628Z,957.98
2016-10-19T02:15:08.540Z,957.99
2016-10-19T02:16:07.911Z,957.99
2016-10-19T02:17:08.286Z,957.98
2016-10-19T02:18:08.378Z,957.97
2016-10-19T02:19:07.656Z,957.99
2016-10-19T02:20:08.223Z,958.01
2016-10-19T02:21:07.914Z,957.96
2016-10-19T02:22:07.594Z,957.93
2016-10-19T02:23:08.169Z,957.93
2016-10-19T02:24:08.427Z,957.91
2016-10-19T02:25:08.320Z,957.93
2016-10-19T02:26:08.661Z,957.94
2016-10-19T02:27:07.859Z,957.94
2016-10-19T02:28:08.273Z,957.93
2016-10-19T02:29:08.536Z,957.90
2016-10-19T02:30:08.403Z,957.92
2016-10-19T02:31:07.590Z,957.91
2016-10-19T02:32:09.144Z,957.87
2016-10-19T02:33:07.900Z,957.90
2016-10-19T02:34:07.953Z,957.85
2016-10-19T02:35:08.650Z,957.86
2016-10-19T02:36:07.893Z,957.86
2016-10-19T02:37:07.944Z,957.85
2016-10-19T02:38:08.598Z,957.86
2016-10-19T02:39:08.611Z,957.86
2016-10-19T02:40:07.583Z,957.83
2016-10-19T02:41:08.675Z,957.87
2016-10-19T02:42:07.975Z,957.87
2016-10-19T02:43:07.565Z,957.84
2016-10-19T02:44:08.253Z,957.81
2016-10-19T02:45:07.966Z,957.85
2016-10-19T02:46:08.192Z,957.84
2016-10-19T02:47:09.181Z,957.82
2016-10-19T02:48:07.953Z,957.82
2016-10-19T02:49:08.296Z,957.78
2016-10-19T02:50:08.221Z,957.78
2016-10-19T02:51:07.916Z,957.77
2016-10-19T02:52:08.257Z,957.78
2016-10-19T02:53:08.265Z,957.78
2016-10-19T02:54:08.613Z,957.70
2016-10-19T02:55:08.297Z,957.74
2016-10-19T02:56:08.328Z,957.73
2016-10-19T02:57:07.927Z,957.70
2016-10-19T02:58:08.307Z,957.72
2016-10-19T02:59:08.541Z,957.69
2016-10-19T03:00:08.324Z,957.65
2016-10-19T03:01:07.964Z,957.61
2016-10-19T03:02:08.292Z,957.63
2016-10-19T03:03:08.035Z,957.67
2016-10-19T03:04:07.986Z,957.62
2016-10-19T03:05:08.184Z,957.64
2016-10-19T03:06:07.986Z,957.70
2016-10-19T03:07:08.068Z,957.66
2016-10-19T03:08:13.792Z,957.63
2016-10-19T03:09:08.108Z,957.64
2016-10-19T03:10:07.712Z,957.59
2016-10-19T03:11:08.343Z,957.64
2016-10-19T03:12:07.989Z,957.67
2016-10-19T03:13:07.761Z,957.66
2016-10-19T03:14:09.412Z,957.69
2016-10-19T03:15:08.102Z,957.63
2016-10-19T03:16:10.418Z,957.65
2016-10-19T03:17:08.427Z,957.62
2016-10-19T03:18:08.384Z,957.60
2016-10-19T03:19:07.827Z,957.59
2016-10-19T03:20:08.672Z,957.57
2016-10-19T03:21:08.387Z,957.58
2016-10-19T03:22:07.995Z,957.60
2016-10-19T03:23:07.696Z,957.54
2016-10-19T03:24:08.125Z,957.51
2016-10-19T03:25:07.965Z,957.53
2016-10-19T03:26:07.788Z,957.54
2016-10-19T03:27:08.386Z,957.47
2016-10-19T03:28:08.364Z,957.52
2016-10-19T03:29:07.795Z,957.51
2016-10-19T03:30:08.345Z,957.52
2016-10-19T03:31:08.090Z,957.51
2016-10-19T03:32:07.660Z,957.53
2016-10-19T03:33:08.293Z,957.49
2016-10-19T03:34:08.411Z,957.50
2016-10-19T03:35:13.153Z,957.51
2016-10-19T03:36:08.342Z,957.50
2016-10-19T03:37:09.079Z,957.48
2016-10-19T03:38:08.099Z,957.51
2016-10-19T03:39:08.288Z,957.46
2016-10-19T03:40:08.201Z,957.53
2016-10-19T03:41:08.061Z,957.47
2016-10-19T03:42:08.494Z,957.48
2016-10-19T03:43:08.075Z,957.44
2016-10-19T03:44:07.758Z,957.49
2016-10-19T03:45:08.350Z,957.44
2016-10-19T03:46:08.731Z,957.46
2016-10-19T03:47:13.276Z,957.44
2016-10-19T03:48:08.322Z,957.46
2016-10-19T03:49:08.043Z,957.43
2016-10-19T03:50:07.683Z,957.43
2016-10-19T03:51:08.283Z,957.42
2016-10-19T03:52:08.044Z,957.45
2016-10-19T03:53:07.690Z,957.42
2016-10-19T03:54:08.507Z,957.41
2016-10-19T03:55:08.105Z,957.44
2016-10-19T03:56:08.450Z,957.43
2016-10-19T03:57:08.307Z,957.34
2016-10-19T03:58:08.044Z,957.42
2016-10-19T03:59:08.018Z,957.39
2016-10-19T04:00:08.332Z,957.44
2016-10-19T04:01:08.478Z,957.43
2016-10-19T04:02:08.016Z,957.43
2016-10-19T04:03:08.839Z,957.44
2016-10-19T04:04:08.057Z,957.42
2016-10-19T04:05:07.560Z,957.36
2016-10-19T04:06:09.252Z,957.36
2016-10-19T04:07:08.120Z,957.37
2016-10-19T04:08:08.384Z,957.35
2016-10-19T04:09:08.412Z,957.37
2016-10-19T04:10:08.409Z,957.39
2016-10-19T04:11:07.728Z,957.40
2016-10-19T04:12:08.650Z,957.37
2016-10-19T04:13:08.386Z,957.25
2016-10-19T04:14:08.235Z,957.28
2016-10-19T04:15:08.836Z,957.32
2016-10-19T04:16:09.389Z,957.33
2016-10-19T04:17:07.809Z,957.30
2016-10-19T04:18:10.316Z,957.29
2016-10-19T04:19:08.086Z,957.28
2016-10-19T04:20:08.096Z,957.30
2016-10-19T04:21:07.485Z,957.28
2016-10-19T04:22:08.322Z,957.31
2016-10-19T04:23:08.520Z,957.27
2016-10-19T04:24:08.541Z,957.23
2016-10-19T04:25:10.861Z,957.27
2016-10-19T04:26:08.095Z,957.22
2016-10-19T04:27:09.575Z,957.21
2016-10-19T04:28:08.391Z,957.18
2016-10-19T04:29:08.053Z,957.25
2016-10-19T04:30:07.868Z,957.22
2016-10-19T04:31:08.863Z,957.24
2016-10-19T04:32:08.983Z,957.19
2016-10-19T04:33:07.788Z,957.22
2016-10-19T04:34:08.476Z,957.28
2016-10-19T04:35:08.716Z,957.22
2016-10-19T04:36:07.828Z,957.24
2016-10-19T04:37:08.295Z,957.19
2016-10-19T04:38:08.432Z,957.24
2016-10-19T04:39:07.809Z,957.24
2016-10-19T04:40:08.451Z,957.23
2016-10-19T04:41:08.151Z,957.24
2016-10-19T04:42:13.388Z,957.22
2016-10-19T04:43:08.797Z,957.20
2016-10-19T04:44:09.072Z,957.22
2016-10-19T04:45:07.840Z,957.22
2016-10-19T04:46:08.880Z,957.21
2016-10-19T04:47:08.804Z,957.21
2016-10-19T04:48:08.437Z,957.15
2016-10-19T04:49:09.048Z,957.20
2016-10-19T04:50:08.505Z,957.15
2016-10-19T04:51:08.192Z,957.17
2016-10-19T04:52:08.281Z,957.20
2016-10-19T04:53:08.733Z,957.17
2016-10-19T04:54:08.445Z,957.16
2016-10-19T04:55:08.977Z,957.13
2016-10-19T04:56:08.103Z,957.15
2016-10-19T04:57:08.445Z,957.17
2016-10-19T04:58:08.534Z,957.15
2016-10-19T04:59:08.115Z,957.12
2016-10-19T05:00:08.121Z,957.13
2016-10-19T05:01:09.617Z,957.11
2016-10-19T05:02:08.194Z,957.13
2016-10-19T05:03:08.464Z,957.09
2016-10-19T05:04:08.458Z,957.07
2016-10-19T05:05:08.045Z,957.04
2016-10-19T05:06:07.852Z,957.08
2016-10-19T05:07:08.484Z,957.06
2016-10-19T05:08:08.242Z,957.04
2016-10-19T05:09:08.561Z,957.08
2016-10-19T05:10:09.207Z,957.07
2016-10-19T05:11:08.178Z,957.05
2016-10-19T05:12:07.951Z,957.04
2016-10-19T05:13:08.467Z,957.08
2016-10-19T05:14:08.852Z,957.06
2016-10-19T05:15:08.453Z,957.05
2016-10-19T05:16:08.828Z,957.08
2016-10-19T05:17:08.388Z,957.06
2016-10-19T05:18:07.876Z,957.02
2016-10-19T05:19:07.785Z,957.06
2016-10-19T05:20:09.001Z,957.10
2016-10-19T05:21:07.834Z,957.13
2016-10-19T05:22:08.212Z,957.09
2016-10-19T05:23:08.203Z,957.07
2016-10-19T05:24:07.815Z,957.12
2016-10-19T05:25:08.883Z,957.13
2016-10-19T05:26:08.559Z,957.10
2016-10-19T05:27:08.277Z,957.16
2016-10-19T05:28:08.462Z,957.13
2016-10-19T05:29:08.723Z,957.14
2016-10-19T05:30:08.513Z,957.17
2016-10-19T05:31:08.634Z,957.16
2016-10-19T05:32:08.562Z,957.16
2016-10-19T05:33:08.488Z,957.18
2016-10-19T05:34:09.056Z,957.16
2016-10-19T05:35:08.569Z,957.14
2016-10-19T05:36:08.283Z,957.17
2016-10-19T05:37:09.050Z,957.21
2016-10-19T05:38:08.206Z,957.17
2016-10-19T05:39:07.814Z,957.22
2016-10-19T05:40:08.483Z,957.19
2016-10-19T05:41:08.214Z,957.20
2016-10-19T05:42:08.317Z,957.22
2016-10-19T05:43:08.938Z,957.21
2016-10-19T05:44:08.669Z,957.22
2016-10-19T05:45:07.828Z,957.21
2016-10-19T05:46:08.457Z,957.21
2016-10-19T05:47:08.891Z,957.25
2016-10-19T05:48:07.949Z,957.20
2016-10-19T05:49:08.942Z,957.25
2016-10-19T05:50:08.242Z,957.24
2016-10-19T05:51:07.884Z,957.26
2016-10-19T05:52:08.501Z,957.22
2016-10-19T05:53:08.528Z,957.17
2016-10-19T05:54:07.832Z,957.20
2016-10-19T05:55:08.882Z,957.24
2016-10-19T05:56:08.890Z,957.25
2016-10-19T05:57:08.238Z,957.23
2016-10-19T05:58:08.985Z,957.20
2016-10-19T05:59:08.888Z,957.24
2016-10-19T06:00:08.317Z,957.19
2016-10-19T06:01:14.173Z,957.22
2016-10-19T06:02:08.296Z,957.22
2016-10-19T06:03:08.555Z,957.25
2016-10-19T06:04:08.602Z,957.26
2016-10-19T06:05:08.842Z,957.25
2016-10-19T06:06:07.903Z,957.23
2016-10-19T06:07:07.574Z,957.27
2016-10-19T06:08:08.340Z,957.28
2016-10-19T06:09:08.545Z,957.26
2016-10-19T06:10:08.714Z,957.28
2016-10-19T06:11:08.546Z,957.26
2016-10-19T06:12:08.254Z,957.31
2016-10-19T06:13:07.658Z,957.28
2016-10-19T06:14:08.255Z,957.31
2016-10-19T06:15:08.575Z,957.26
2016-10-19T06:16:09.624Z,957.33
2016-10-19T06:17:08.235Z,957.31
2016-10-19T06:18:08.363Z,957.29
2016-10-19T06:19:08.225Z,957.33
2016-10-19T06:20:08.503Z,957.39
2016-10-19T06:21:08.260Z,957.38
2016-10-19T06:22:07.945Z,957.42
2016-10-19T06:23:07.715Z,957.42
2016-10-19T06:24:08.575Z,957.39
2016-10-19T06:25:07.879Z,957.38
2016-10-19T06:26:08.897Z,957.41
2016-10-19T06:27:08.696Z,957.44
2016-10-19T06:28:08.586Z,957.46
2016-10-19T06:29:07.735Z,957.49
2016-10-19T06:30:09.343Z,957.46
2016-10-19T06:31:08.278Z,957.49
2016-10-19T06:32:07.976Z,957.53
2016-10-19T06:33:08.579Z,957.50
2016-10-19T06:34:08.010Z,957.52
2016-10-19T06:35:08.032Z,957.54
2016-10-19T06:36:08.336Z,957.53
2016-10-19T06:37:08.635Z,957.50
2016-10-19T06:38:07.840Z,957.49
2016-10-19T06:39:08.970Z,957.51
2016-10-19T06:40:07.904Z,957.46
2016-10-19T06:41:08.235Z,957.49
2016-10-19T06:42:08.264Z,957.46
2016-10-19T06:43:07.896Z,957.44
2016-10-19T06:44:07.637Z,957.40
2016-10-19T06:45:08.277Z,957.44
2016-10-19T06:46:08.635Z,957.41
2016-10-19T06:47:07.687Z,957.48
2016-10-19T06:48:08.602Z,957.46
2016-10-19T06:49:07.940Z,957.51
2016-10-19T06:50:08.313Z,957.48
2016-10-19T06:51:08.360Z,957.48
2016-10-19T06:52:07.923Z,957.55
2016-10-19T06:53:07.757Z,957.58
2016-10-19T06:54:08.670Z,957.58
2016-10-19T06:55:07.941Z,957.62
2016-10-19T06:56:07.991Z,957.59
2016-10-19T06:57:08.102Z,957.62
2016-10-19T06:58:08.564Z,957.59
2016-10-19T06:59:07.777Z,957.63
2016-10-19T07:00:08.197Z,957.61
2016-10-19T07:01:08.076Z,957.65
2016-10-19T07:02:08.553Z,957.63
2016-10-19T07:03:08.719Z,957.68
2016-10-19T07:04:07.936Z,957.66
2016-10-19T07:05:07.987Z,957.69
2016-10-19T07:06:08.309Z,957.68
2016-10-19T07:07:08.001Z,957.75
2016-10-19T07:08:08.677Z,957.70
2016-10-19T07:09:08.240Z,957.78
2016-10-19T07:10:07.671Z,957.77
2016-10-19T07:11:08.321Z,957.74
2016-10-19T07:12:08.094Z,957.72
2016-10-19T07:13:08.364Z,957.79
2016-10-19T07:14:08.303Z,957.82
2016-10-19T07:15:08.016Z,957.78
2016-10-19T07:16:07.964Z,957.82
2016-10-19T07:17:08.353Z,957.84
2016-10-19T07:18:08.556Z,957.86
2016-10-19T07:19:07.777Z,957.90
2016-10-19T07:20:08.380Z,957.87
2016-10-19T07:21:08.105Z,957.89
2016-10-19T07:22:08.241Z,957.91
2016-10-19T07:23:08.769Z,957.87
2016-10-19T07:24:07.957Z,957.91
2016-10-19T07:25:07.617Z,957.94
2016-10-19T07:26:08.260Z,957.94
2016-10-19T07:27:08.041Z,957.94
2016-10-19T07:28:07.532Z,957.92
2016-10-19T07:29:08.952Z,957.97
2016-10-19T07:30:08.139Z,957.99
2016-10-19T07:31:07.764Z,957.96
2016-10-19T07:32:08.644Z,958.00
2016-10-19T07:33:08.074Z,957.97
2016-10-19T07:34:08.684Z,957.98
2016-10-19T07:35:08.372Z,957.95
2016-10-19T07:36:08.025Z,957.92
2016-10-19T07:37:08.638Z,957.98
2016-10-19T07:38:08.054Z,957.98
2016-10-19T07:39:07.689Z,957.91
2016-10-19T07:40:08.583Z,957.92
2016-10-19T07:41:08.301Z,957.88
2016-10-19T07:42:07.741Z,957.94
2016-10-19T07:43:08.803Z,957.93
2016-10-19T07:44:08.055Z,957.90
2016-10-19T07:45:07.755Z,957.92
2016-10-19T07:46:08.339Z,957.95
2016-10-19T07:47:08.384Z,957.93
2016-10-19T07:48:07.831Z,957.93
2016-10-19T07:49:08.309Z,957.91
2016-10-19T07:50:08.058Z,957.86
2016-10-19T07:51:07.745Z,957.90
2016-10-19T07:52:08.348Z,957.89
2016-10-19T07:53:08.030Z,957.89
2016-10-19T07:54:07.723Z,957.89
2016-10-19T07:55:08.722Z,957.93
2016-10-19T07:56:08.047Z,957.90
2016-10-19T07:57:07.409Z,957.89
2016-10-19T07:58:08.375Z,957.94
2016-10-19T07:59:08.063Z,957.90
2016-10-19T08:00:08.700Z,957.91
2016-10-19T08:01:08.062Z,957.94
2016-10-19T08:02:07.735Z,957.97
2016-10-19T08:03:09.002Z,957.95
2016-10-19T08:04:08.022Z,957.94
2016-10-19T08:05:09.351Z,957.96
2016-10-19T08:06:08.817Z,957.98
2016-10-19T08:07:08.761Z,958.01
2016-10-19T08:08:08.215Z,957.97
2016-10-19T08:09:09.101Z,957.99
2016-10-19T08:10:08.300Z,957.96
2016-10-19T08:11:08.379Z,957.98
2016-10-19T08:12:08.782Z,957.99
2016-10-19T08:13:08.488Z,958.00
2016-10-19T08:14:07.883Z,958.00
2016-10-19T08:15:08.312Z,957.99
2016-10-19T08:16:08.121Z,957.96
2016-10-19T08:17:07.799Z,957.94
2016-10-19T08:18:08.809Z,957.93
2016-10-19T08:19:08.398Z,957.91
2016-10-19T08:20:07.816Z,957.90
2016-10-19T08:21:08.368Z,957.91
2016-10-19T08:22:08.091Z,957.96
2016-10-19T08:23:07.787Z,957.98
2016-10-19T08:24:08.459Z,957.94
2016-10-19T08:25:08.160Z,957.97
2016-10-19T08:26:07.443Z,957.98
2016-10-19T08:27:08.134Z,957.99
2016-10-19T08:28:08.190Z,958.02
2016-10-19T08:29:08.577Z,958.00
2016-10-19T08:30:08.101Z,957.98
2016-10-19T08:31:07.736Z,958.00
2016-10-19T08:32:08.895Z,957.98
2016-10-19T08:33:08.187Z,957.99
2016-10-19T08:34:07.807Z,957.99
2016-10-19T08:35:08.372Z,957.97
2016-10-19T08:36:08.062Z,957.99
2016-10-19T08:37:08.207Z,957.96
2016-10-19T08:38:09.492Z,957.96
2016-10-19T08:39:08.125Z,957.93
2016-10-19T08:40:07.924Z,957.92
2016-10-19T08:41:08.518Z,957.94
2016-10-19T08:42:08.516Z,957.92
2016-10-19T08:43:07.917Z,957.90
2016-10-19T08:44:09.402Z,957.87
2016-10-19T08:45:08.054Z,957.93
2016-10-19T08:46:07.856Z,957.87
2016-10-19T08:47:08.459Z,957.86
2016-10-19T08:48:08.222Z,957.87
2016-10-19T08:49:07.597Z,957.88
2016-10-19T08:50:08.407Z,957.88
2016-10-19T08:51:08.003Z,957.84
2016-10-19T08:52:07.527Z,957.86
2016-10-19T08:53:08.595Z,957.89
2016-10-19T08:54:08.484Z,957.84
2016-10-19T08:55:08.447Z,957.84
2016-10-19T08:56:08.784Z,957.83
2016-10-19T08:57:07.952Z,957.88
2016-10-19T08:58:08.834Z,957.86
2016-10-19T08:59:08.230Z,957.85
2016-10-19T09:00:07.935Z,957.87
2016-10-19T09:01:09.502Z,957.83
2016-10-19T09:02:08.236Z,957.84
2016-10-19T09:03:07.871Z,957.89
2016-10-19T09:04:08.395Z,957.86
2016-10-19T09:05:08.154Z,957.88
2016-10-19T09:06:07.485Z,957.81
2016-10-19T09:07:08.460Z,957.87
2016-10-19T09:08:07.833Z,957.80
2016-10-19T09:09:07.947Z,957.77
2016-10-19T09:10:08.153Z,957.83
2016-10-19T09:11:07.851Z,957.88
2016-10-19T09:12:08.429Z,957.84
2016-10-19T09:13:08.161Z,957.83
2016-10-19T09:14:08.245Z,957.83
2016-10-19T09:15:08.436Z,957.86
2016-10-19T09:16:08.488Z,957.82
2016-10-19T09:17:07.637Z,957.81
2016-10-19T09:18:08.440Z,957.78
2016-10-19T09:19:08.209Z,957.76
2016-10-19T09:20:07.814Z,957.82
2016-10-19T09:21:09.180Z,957.77
2016-10-19T09:22:08.120Z,957.80
2016-10-19T09:23:08.251Z,957.79
2016-10-19T09:24:08.900Z,957.74
2016-10-19T09:25:08.208Z,957.73
2016-10-19T09:26:07.643Z,957.71
2016-10-19T09:27:08.561Z,957.69
2016-10-19T09:28:07.886Z,957.73
2016-10-19T09:29:07.617Z,957.67
2016-10-19T09:30:08.341Z,957.69
2016-10-19T09:31:07.831Z,957.65
2016-10-19T09:32:07.524Z,957.66
2016-10-19T09:33:08.182Z,957.64
2016-10-19T09:34:07.846Z,957.64
2016-10-19T09:35:08.515Z,957.67
2016-10-19T09:36:08.592Z,957.59
2016-10-19T09:37:07.967Z,957.63
2016-10-19T09:38:08.540Z,957.60
2016-10-19T09:39:08.159Z,957.58
2016-10-19T09:40:07.968Z,957.52
2016-10-19T09:41:08.484Z,957.54
2016-10-19T09:42:08.243Z,957.60
2016-10-19T09:43:07.616Z,957.60
2016-10-19T09:44:08.548Z,957.47
2016-10-19T09:45:08.221Z,957.53
2016-10-19T09:46:07.613Z,957.56
2016-10-19T09:47:08.530Z,957.56
2016-10-19T09:48:07.937Z,957.51
2016-10-19T09:49:07.573Z,957.55
2016-10-19T09:50:08.933Z,957.52
2016-10-19T09:51:08.308Z,957.50
2016-10-19T09:52:08.959Z,957.50
2016-10-19T09:53:08.230Z,957.51
2016-10-19T09:54:07.955Z,957.50
2016-10-19T09:55:08.485Z,957.47
2016-10-19T09:56:08.254Z,957.53
2016-10-19T09:57:07.615Z,957.52
2016-10-19T09:58:08.530Z,957.51
2016-10-19T09:59:08.362Z,957.47
2016-10-19T10:00:07.553Z,957.49
2016-10-19T10:01:08.167Z,957.47
2016-10-19T10:02:07.956Z,957.49
2016-10-19T10:03:07.686Z,957.44
2016-10-19T10:04:08.308Z,957.54
2016-10-19T10:05:07.827Z,957.50
2016-10-19T10:06:08.623Z,957.58
2016-10-19T10:07:08.648Z,957.63
2016-10-19T10:08:08.048Z,957.58
2016-10-19T10:09:08.670Z,957.54
2016-10-19T10:10:08.252Z,957.59
2016-10-19T10:11:08.012Z,957.52
2016-10-19T10:12:08.443Z,957.53
2016-10-19T10:13:08.284Z,957.47
2016-10-19T10:14:07.986Z,957.49
2016-10-19T10:15:08.564Z,957.51
2016-10-19T10:16:08.291Z,957.50
2016-10-19T10:17:07.676Z,957.50
2016-10-19T10:18:07.709Z,957.52
2016-10-19T10:19:08.198Z,957.45
2016-10-19T10:20:08.030Z,957.54
2016-10-19T10:21:07.679Z,957.56
2016-10-19T10:22:08.860Z,957.54
2016-10-19T10:23:07.946Z,957.56
2016-10-19T10:24:09.217Z,957.60
2016-10-19T10:25:08.649Z,957.55
2016-10-19T10:26:08.029Z,957.52
2016-10-19T10:27:09.517Z,957.56
2016-10-19T10:28:08.611Z,957.55
2016-10-19T10:29:07.998Z,957.56
2016-10-19T10:30:08.618Z,957.56
2016-10-19T10:31:08.289Z,957.58
2016-10-19T10:32:07.660Z,957.56
2016-10-19T10:33:08.609Z,957.59
2016-10-19T10:34:08.066Z,957.53
2016-10-19T10:35:08.014Z,957.57
2016-10-19T10:36:08.287Z,957.50
2016-10-19T10:37:07.989Z,957.56
2016-10-19T10:38:08.014Z,957.51
2016-10-19T10:39:08.221Z,957.54
2016-10-19T10:40:07.988Z,957.54
2016-10-19T10:41:08.054Z,957.54
2016-10-19T10:42:08.612Z,957.54
2016-10-19T10:43:08.042Z,957.54
2016-10-19T10:44:09.014Z,957.53
2016-10-19T10:45:08.233Z,957.50
2016-10-19T10:46:08.020Z,957.46
2016-10-19T10:47:08.675Z,957.43
2016-10-19T10:48:08.295Z,957.42
2016-10-19T10:49:07.976Z,957.43
2016-10-19T10:50:08.554Z,957.39
2016-10-19T10:51:08.011Z,957.35
2016-10-19T10:52:07.629Z,957.36
2016-10-19T10:53:08.611Z,957.37
2016-10-19T10:54:08.672Z,957.28
2016-10-19T10:55:07.798Z,957.28
2016-10-19T10:56:08.291Z,957.30
2016-10-19T10:57:09.822Z,957.24
2016-10-19T10:58:07.750Z,957.28
2016-10-19T10:59:08.371Z,957.28
2016-10-19T11:00:08.084Z,957.29
2016-10-19T11:01:07.682Z,957.25
2016-10-19T11:02:08.623Z,957.25
2016-10-19T11:03:08.061Z,957.27
2016-10-19T11:04:08.700Z,957.28
2016-10-19T11:05:08.130Z,957.24
2016-10-19T11:06:08.030Z,957.22
2016-10-19T11:07:08.576Z,957.28
2016-10-19T11:08:08.325Z,957.32
2016-10-19T11:09:07.782Z,957.31
2016-10-19T11:10:13.817Z,957.31
2016-10-19T11:11:08.417Z,957.27
2016-10-19T11:12:07.672Z,957.28
2016-10-19T11:13:08.512Z,957.28
2016-10-19T11:14:08.397Z,957.26
2016-10-19T11:15:08.345Z,957.24
2016-10-19T11:16:08.411Z,957.22
2016-10-19T11:17:08.009Z,957.26
2016-10-19T11:18:07.798Z,957.26
2016-10-19T11:19:14.068Z,957.26
2016-10-19T11:20:07.961Z,957.28
2016-10-19T11:21:07.743Z,957.25
2016-10-19T11:22:08.345Z,957.24
2016-10-19T11:23:08.003Z,957.20
2016-10-19T11:24:08.365Z,957.23
2016-10-19T11:25:08.306Z,957.18
2016-10-19T11:26:07.928Z,957.14
2016-10-19T11:27:07.735Z,957.06
2016-10-19T11:28:08.340Z,957.03
2016-10-19T11:29:08.341Z,957.08
2016-10-19T11:30:07.381Z,957.07
2016-10-19T11:31:08.408Z,957.06
2016-10-19T11:32:08.036Z,957.09
2016-10-19T11:33:07.438Z,957.07
2016-10-19T11:34:08.397Z,957.04
2016-10-19T11:35:07.779Z,956.97
2016-10-19T11:36:08.569Z,957.00
2016-10-19T11:37:08.079Z,957.03
2016-10-19T11:38:09.373Z,956.97
2016-10-19T11:39:08.715Z,956.96
2016-10-19T11:40:08.498Z,956.94
2016-10-19T11:41:07.798Z,956.92
2016-10-19T11:42:08.383Z,956.90
2016-10-19T11:43:08.186Z,956.95
2016-10-19T11:44:07.787Z,956.86
2016-10-19T11:45:08.480Z,956.82
2016-10-19T11:46:08.124Z,956.85
2016-10-19T11:47:07.406Z,956.80
2016-10-19T11:48:08.699Z,956.80
2016-10-19T11:49:08.089Z,956.77
2016-10-19T11:50:07.439Z,956.77
2016-10-19T11:51:08.426Z,956.77
2016-10-19T11:52:07.734Z,956.75
2016-10-19T11:53:08.441Z,956.76
2016-10-19T11:54:08.128Z,956.74
2016-10-19T11:55:07.838Z,956.75
2016-10-19T11:56:07.482Z,956.75
2016-10-19T11:57:08.038Z,956.72
2016-10-19T11:58:08.156Z,956.66
2016-10-19T11:59:08.318Z,956.68
2016-10-19T12:00:08.194Z,956.62
2016-10-19T12:01:08.378Z,956.66
2016-10-19T12:02:08.393Z,956.63
2016-10-19T12:03:08.718Z,956.62
2016-10-19T12:04:07.818Z,956.64
2016-10-19T12:05:08.729Z,956.65
2016-10-19T12:06:08.125Z,956.60
2016-10-19T12:07:07.691Z,956.56
2016-10-19T12:08:08.381Z,956.58
2016-10-19T12:09:08.411Z,956.62
2016-10-19T12:10:07.856Z,956.58
2016-10-19T12:11:08.390Z,956.54
2016-10-19T12:12:07.753Z,956.52
2016-10-19T12:13:14.229Z,956.51
2016-10-19T12:14:08.556Z,956.51
2016-10-19T12:15:08.473Z,956.53
2016-10-19T12:16:08.489Z,956.46
2016-10-19T12:17:08.051Z,956.48
2016-10-19T12:18:08.131Z,956.46
2016-10-19T12:19:07.450Z,956.46
2016-10-19T12:20:08.174Z,956.50
2016-10-19T12:21:07.747Z,956.47
2016-10-19T12:22:08.377Z,956.42
2016-10-19T12:23:08.061Z,956.42
2016-10-19T12:24:08.497Z,956.43
2016-10-19T12:25:09.079Z,956.46
2016-10-19T12:26:08.779Z,956.44
2016-10-19T12:27:07.908Z,956.44
2016-10-19T12:28:08.356Z,956.41